sensor_id;sensor_type;location;lat;lon;timestamp;P1;durP1;ratioP1;P2;durP2;ratioP2
18146;SDS011;9199;48.832;9.182;2023-06-22T00:01:12;10.57;;;7.73;;
18146;SDS011;9199;48.832;9.182;2023-06-22T00:03:38;13.63;;;7.82;;
18146;SDS011;9199;48.832;9.182;2023-06-22T00:06:06;12.52;;;7.93;;
18146;SDS011;9199;48.832;9.182;2023-06-22T00:08:33;11.05;;;8.23;;
18146;SDS011;9199;48.832;9.182;2023-06-22T00:10:59;12.13;;;7.85;;
18146;SDS011;9199;48.832;9.182;2023-06-22T00:13:26;12.27;;;6.93;;
18146;SDS011;9199;48.832;9.182;2023-06-22T00:15:53;12.88;;;8.00;;
18146;SDS011;9199;48.832;9.182;2023-06-22T00:18:20;13.00;;;7.72;;
18146;SDS011;9199;48.832;9.182;2023-06-22T00:20:46;12.27;;;7.53;;
18146;SDS011;9199;48.832;9.182;2023-06-22T00:23:14;11.68;;;7.63;;
18146;SDS011;9199;48.832;9.182;2023-06-22T00:25:42;10.93;;;7.50;;
18146;SDS011;9199;48.832;9.182;2023-06-22T00:28:09;13.40;;;7.90;;
18146;SDS011;9199;48.832;9.182;2023-06-22T00:30:36;10.88;;;7.60;;
18146;SDS011;9199;48.832;9.182;2023-06-22T00:33:02;14.07;;;8.30;;
18146;SDS011;9199;48.832;9.182;2023-06-22T00:35:32;10.60;;;7.18;;
18146;SDS011;9199;48.832;9.182;2023-06-22T00:38:00;11.40;;;7.73;;
18146;SDS011;9199;48.832;9.182;2023-06-22T00:40:30;14.50;;;8.10;;
18146;SDS011;9199;48.832;9.182;2023-06-22T00:42:58;13.30;;;8.38;;
18146;SDS011;9199;48.832;9.182;2023-06-22T00:45:25;10.95;;;7.80;;
18146;SDS011;9199;48.832;9.182;2023-06-22T00:47:52;11.55;;;8.13;;
18146;SDS011;9199;48.832;9.182;2023-06-22T00:50:22;10.87;;;7.27;;
18146;SDS011;9199;48.832;9.182;2023-06-22T00:52:51;11.82;;;7.65;;
18146;SDS011;9199;48.832;9.182;2023-06-22T00:55:19;11.48;;;8.18;;
18146;SDS011;9199;48.832;9.182;2023-06-22T00:57:48;11.20;;;7.90;;
18146;SDS011;9199;48.832;9.182;2023-06-22T01:00:15;14.27;;;8.68;;
18146;SDS011;9199;48.832;9.182;2023-06-22T01:02:44;12.17;;;7.93;;
18146;SDS011;9199;48.832;9.182;2023-06-22T01:05:11;13.07;;;8.00;;
18146;SDS011;9199;48.832;9.182;2023-06-22T01:07:39;13.48;;;8.18;;
18146;SDS011;9199;48.832;9.182;2023-06-22T01:10:14;13.60;;;8.45;;
18146;SDS011;9199;48.832;9.182;2023-06-22T01:12:44;12.80;;;8.00;;
18146;SDS011;9199;48.832;9.182;2023-06-22T01:15:18;16.10;;;8.50;;
18146;SDS011;9199;48.832;9.182;2023-06-22T01:17:51;13.88;;;9.05;;
18146;SDS011;9199;48.832;9.182;2023-06-22T01:20:19;13.93;;;8.27;;
18146;SDS011;9199;48.832;9.182;2023-06-22T01:22:50;11.48;;;8.32;;
18146;SDS011;9199;48.832;9.182;2023-06-22T01:25:28;12.00;;;8.05;;
18146;SDS011;9199;48.832;9.182;2023-06-22T01:28:03;12.33;;;8.53;;
18146;SDS011;9199;48.832;9.182;2023-06-22T01:30:41;13.50;;;8.52;;
18146;SDS011;9199;48.832;9.182;2023-06-22T01:33:08;14.77;;;8.35;;
18146;SDS011;9199;48.832;9.182;2023-06-22T01:35:38;13.38;;;8.13;;
18146;SDS011;9199;48.832;9.182;2023-06-22T01:38:05;13.80;;;8.48;;
18146;SDS011;9199;48.832;9.182;2023-06-22T01:40:32;13.43;;;8.40;;
18146;SDS011;9199;48.832;9.182;2023-06-22T01:43:00;12.15;;;8.13;;
18146;SDS011;9199;48.832;9.182;2023-06-22T01:45:28;10.93;;;7.90;;
18146;SDS011;9199;48.832;9.182;2023-06-22T01:47:56;14.63;;;8.27;;
18146;SDS011;9199;48.832;9.182;2023-06-22T01:50:23;11.57;;;8.00;;
18146;SDS011;9199;48.832;9.182;2023-06-22T01:52:50;13.77;;;8.87;;
18146;SDS011;9199;48.832;9.182;2023-06-22T01:55:17;13.88;;;9.00;;
18146;SDS011;9199;48.832;9.182;2023-06-22T01:57:44;13.38;;;8.60;;
18146;SDS011;9199;48.832;9.182;2023-06-22T02:00:12;14.40;;;8.90;;
18146;SDS011;9199;48.832;9.182;2023-06-22T02:02:45;13.40;;;8.70;;
18146;SDS011;9199;48.832;9.182;2023-06-22T02:05:19;16.57;;;9.10;;
18146;SDS011;9199;48.832;9.182;2023-06-22T02:07:47;11.82;;;9.05;;
18146;SDS011;9199;48.832;9.182;2023-06-22T02:10:19;15.05;;;8.30;;
18146;SDS011;9199;48.832;9.182;2023-06-22T02:12:48;13.75;;;8.57;;
18146;SDS011;9199;48.832;9.182;2023-06-22T02:15:17;14.40;;;8.55;;
18146;SDS011;9199;48.832;9.182;2023-06-22T02:17:44;11.03;;;7.53;;
18146;SDS011;9199;48.832;9.182;2023-06-22T02:20:12;13.90;;;8.32;;
18146;SDS011;9199;48.832;9.182;2023-06-22T02:22:40;16.35;;;9.07;;
18146;SDS011;9199;48.832;9.182;2023-06-22T02:25:07;14.40;;;8.88;;
18146;SDS011;9199;48.832;9.182;2023-06-22T02:27:34;11.38;;;8.25;;
18146;SDS011;9199;48.832;9.182;2023-06-22T02:30:01;12.43;;;8.23;;
18146;SDS011;9199;48.832;9.182;2023-06-22T02:32:28;15.45;;;9.07;;
18146;SDS011;9199;48.832;9.182;2023-06-22T02:34:55;12.77;;;9.00;;
18146;SDS011;9199;48.832;9.182;2023-06-22T02:37:21;14.05;;;8.45;;
18146;SDS011;9199;48.832;9.182;2023-06-22T02:39:51;14.13;;;8.50;;
18146;SDS011;9199;48.832;9.182;2023-06-22T02:42:18;16.63;;;9.20;;
18146;SDS011;9199;48.832;9.182;2023-06-22T02:44:46;13.27;;;8.68;;
18146;SDS011;9199;48.832;9.182;2023-06-22T02:47:13;13.98;;;8.80;;
18146;SDS011;9199;48.832;9.182;2023-06-22T02:49:40;15.23;;;9.30;;
18146;SDS011;9199;48.832;9.182;2023-06-22T02:52:06;13.70;;;8.90;;
18146;SDS011;9199;48.832;9.182;2023-06-22T02:54:33;13.83;;;9.97;;
18146;SDS011;9199;48.832;9.182;2023-06-22T02:57:01;17.65;;;9.68;;
18146;SDS011;9199;48.832;9.182;2023-06-22T02:59:28;17.23;;;10.35;;
18146;SDS011;9199;48.832;9.182;2023-06-22T03:01:55;15.20;;;10.07;;
18146;SDS011;9199;48.832;9.182;2023-06-22T03:04:21;17.30;;;10.20;;
18146;SDS011;9199;48.832;9.182;2023-06-22T03:06:48;15.13;;;9.13;;
18146;SDS011;9199;48.832;9.182;2023-06-22T03:09:16;15.05;;;10.15;;
18146;SDS011;9199;48.832;9.182;2023-06-22T03:11:43;17.20;;;9.60;;
18146;SDS011;9199;48.832;9.182;2023-06-22T03:14:11;16.13;;;9.75;;
18146;SDS011;9199;48.832;9.182;2023-06-22T03:16:37;15.88;;;9.80;;
18146;SDS011;9199;48.832;9.182;2023-06-22T03:19:05;15.07;;;9.40;;
18146;SDS011;9199;48.832;9.182;2023-06-22T03:21:32;18.83;;;10.30;;
18146;SDS011;9199;48.832;9.182;2023-06-22T03:23:58;16.48;;;9.60;;
18146;SDS011;9199;48.832;9.182;2023-06-22T03:26:25;15.00;;;9.43;;
18146;SDS011;9199;48.832;9.182;2023-06-22T03:28:52;15.45;;;9.60;;
18146;SDS011;9199;48.832;9.182;2023-06-22T03:31:20;12.63;;;9.30;;
18146;SDS011;9199;48.832;9.182;2023-06-22T03:33:47;14.73;;;9.90;;
18146;SDS011;9199;48.832;9.182;2023-06-22T03:36:14;16.30;;;9.40;;
18146;SDS011;9199;48.832;9.182;2023-06-22T03:38:43;14.65;;;9.35;;
18146;SDS011;9199;48.832;9.182;2023-06-22T03:41:10;16.65;;;9.70;;
18146;SDS011;9199;48.832;9.182;2023-06-22T03:43:37;15.00;;;9.40;;
18146;SDS011;9199;48.832;9.182;2023-06-22T03:46:04;15.20;;;9.70;;
18146;SDS011;9199;48.832;9.182;2023-06-22T03:48:32;13.20;;;8.85;;
18146;SDS011;9199;48.832;9.182;2023-06-22T03:50:59;15.15;;;9.55;;
18146;SDS011;9199;48.832;9.182;2023-06-22T03:53:26;14.38;;;8.57;;
18146;SDS011;9199;48.832;9.182;2023-06-22T03:55:52;15.33;;;9.67;;
18146;SDS011;9199;48.832;9.182;2023-06-22T03:58:19;18.10;;;8.93;;
18146;SDS011;9199;48.832;9.182;2023-06-22T04:00:47;15.93;;;9.18;;
18146;SDS011;9199;48.832;9.182;2023-06-22T04:03:14;15.40;;;9.45;;
18146;SDS011;9199;48.832;9.182;2023-06-22T04:05:44;14.95;;;9.52;;
18146;SDS011;9199;48.832;9.182;2023-06-22T04:08:11;17.50;;;10.50;;
18146;SDS011;9199;48.832;9.182;2023-06-22T04:10:39;14.20;;;9.35;;
18146;SDS011;9199;48.832;9.182;2023-06-22T04:13:06;14.43;;;9.20;;
18146;SDS011;9199;48.832;9.182;2023-06-22T04:15:33;15.90;;;9.23;;
18146;SDS011;9199;48.832;9.182;2023-06-22T04:18:00;15.52;;;7.88;;
18146;SDS011;9199;48.832;9.182;2023-06-22T04:20:26;14.13;;;8.33;;
18146;SDS011;9199;48.832;9.182;2023-06-22T04:22:54;14.63;;;8.40;;
18146;SDS011;9199;48.832;9.182;2023-06-22T04:25:21;14.10;;;8.25;;
18146;SDS011;9199;48.832;9.182;2023-06-22T04:27:48;14.57;;;8.20;;
18146;SDS011;9199;48.832;9.182;2023-06-22T04:30:16;14.95;;;8.93;;
18146;SDS011;9199;48.832;9.182;2023-06-22T04:32:42;13.47;;;8.40;;
18146;SDS011;9199;48.832;9.182;2023-06-22T04:35:10;14.95;;;8.20;;
18146;SDS011;9199;48.832;9.182;2023-06-22T04:37:37;12.25;;;7.75;;
18146;SDS011;9199;48.832;9.182;2023-06-22T04:40:06;14.48;;;8.30;;
18146;SDS011;9199;48.832;9.182;2023-06-22T04:42:34;12.38;;;8.27;;
18146;SDS011;9199;48.832;9.182;2023-06-22T04:45:01;14.53;;;7.67;;
18146;SDS011;9199;48.832;9.182;2023-06-22T04:47:29;15.52;;;8.55;;
18146;SDS011;9199;48.832;9.182;2023-06-22T04:49:56;11.60;;;8.43;;
18146;SDS011;9199;48.832;9.182;2023-06-22T04:52:23;14.43;;;8.43;;
18146;SDS011;9199;48.832;9.182;2023-06-22T04:54:49;14.15;;;8.13;;
18146;SDS011;9199;48.832;9.182;2023-06-22T04:57:22;12.43;;;8.13;;
18146;SDS011;9199;48.832;9.182;2023-06-22T04:59:55;14.68;;;8.50;;
18146;SDS011;9199;48.832;9.182;2023-06-22T05:02:22;13.38;;;8.23;;
18146;SDS011;9199;48.832;9.182;2023-06-22T05:04:57;17.45;;;8.52;;
18146;SDS011;9199;48.832;9.182;2023-06-22T05:07:24;13.57;;;8.02;;
18146;SDS011;9199;48.832;9.182;2023-06-22T05:09:51;14.50;;;8.53;;
18146;SDS011;9199;48.832;9.182;2023-06-22T05:12:18;11.88;;;8.27;;
18146;SDS011;9199;48.832;9.182;2023-06-22T05:14:46;13.80;;;8.10;;
18146;SDS011;9199;48.832;9.182;2023-06-22T05:17:12;12.52;;;8.35;;
18146;SDS011;9199;48.832;9.182;2023-06-22T05:19:40;11.50;;;7.63;;
18146;SDS011;9199;48.832;9.182;2023-06-22T05:22:10;13.10;;;7.97;;
18146;SDS011;9199;48.832;9.182;2023-06-22T05:24:37;12.30;;;8.05;;
18146;SDS011;9199;48.832;9.182;2023-06-22T05:27:04;12.57;;;7.80;;
18146;SDS011;9199;48.832;9.182;2023-06-22T05:29:31;12.95;;;7.57;;
18146;SDS011;9199;48.832;9.182;2023-06-22T05:31:59;14.60;;;7.60;;
18146;SDS011;9199;48.832;9.182;2023-06-22T05:34:26;13.20;;;8.10;;
18146;SDS011;9199;48.832;9.182;2023-06-22T05:36:53;13.55;;;8.07;;
18146;SDS011;9199;48.832;9.182;2023-06-22T05:39:19;13.68;;;7.65;;
18146;SDS011;9199;48.832;9.182;2023-06-22T05:41:46;12.68;;;7.53;;
18146;SDS011;9199;48.832;9.182;2023-06-22T05:44:13;11.90;;;7.38;;
18146;SDS011;9199;48.832;9.182;2023-06-22T05:46:40;10.73;;;7.37;;
18146;SDS011;9199;48.832;9.182;2023-06-22T05:49:11;13.68;;;7.75;;
18146;SDS011;9199;48.832;9.182;2023-06-22T05:51:37;11.80;;;7.07;;
18146;SDS011;9199;48.832;9.182;2023-06-22T05:54:04;12.07;;;7.85;;
18146;SDS011;9199;48.832;9.182;2023-06-22T05:56:33;11.63;;;7.22;;
18146;SDS011;9199;48.832;9.182;2023-06-22T05:58:59;12.30;;;7.27;;
18146;SDS011;9199;48.832;9.182;2023-06-22T06:01:26;12.27;;;7.10;;
18146;SDS011;9199;48.832;9.182;2023-06-22T06:03:53;12.57;;;7.60;;
18146;SDS011;9199;48.832;9.182;2023-06-22T06:06:21;10.73;;;7.10;;
18146;SDS011;9199;48.832;9.182;2023-06-22T06:08:53;13.15;;;7.70;;
18146;SDS011;9199;48.832;9.182;2023-06-22T06:11:21;12.60;;;7.90;;
18146;SDS011;9199;48.832;9.182;2023-06-22T06:13:47;13.32;;;7.22;;
18146;SDS011;9199;48.832;9.182;2023-06-22T06:16:14;14.23;;;8.10;;
18146;SDS011;9199;48.832;9.182;2023-06-22T06:18:41;15.93;;;8.00;;
18146;SDS011;9199;48.832;9.182;2023-06-22T06:21:07;15.88;;;7.80;;
18146;SDS011;9199;48.832;9.182;2023-06-22T06:23:35;13.30;;;7.53;;
18146;SDS011;9199;48.832;9.182;2023-06-22T06:26:02;12.10;;;7.47;;
18146;SDS011;9199;48.832;9.182;2023-06-22T06:28:32;12.02;;;7.20;;
18146;SDS011;9199;48.832;9.182;2023-06-22T06:30:58;12.70;;;7.38;;
18146;SDS011;9199;48.832;9.182;2023-06-22T06:33:25;11.93;;;7.13;;
18146;SDS011;9199;48.832;9.182;2023-06-22T06:35:52;14.50;;;8.10;;
18146;SDS011;9199;48.832;9.182;2023-06-22T06:38:20;13.30;;;6.63;;
18146;SDS011;9199;48.832;9.182;2023-06-22T06:40:48;12.05;;;7.55;;
18146;SDS011;9199;48.832;9.182;2023-06-22T06:43:15;11.27;;;6.65;;
18146;SDS011;9199;48.832;9.182;2023-06-22T06:45:42;12.63;;;7.20;;
18146;SDS011;9199;48.832;9.182;2023-06-22T06:48:08;13.67;;;6.80;;
18146;SDS011;9199;48.832;9.182;2023-06-22T06:50:35;13.20;;;7.05;;
18146;SDS011;9199;48.832;9.182;2023-06-22T06:53:02;12.80;;;7.15;;
18146;SDS011;9199;48.832;9.182;2023-06-22T06:55:30;9.82;;;6.70;;
18146;SDS011;9199;48.832;9.182;2023-06-22T06:57:59;12.90;;;6.70;;
18146;SDS011;9199;48.832;9.182;2023-06-22T07:00:26;10.30;;;6.70;;
18146;SDS011;9199;48.832;9.182;2023-06-22T07:02:52;11.07;;;6.15;;
18146;SDS011;9199;48.832;9.182;2023-06-22T07:05:19;11.75;;;6.88;;
18146;SDS011;9199;48.832;9.182;2023-06-22T07:07:46;12.65;;;6.47;;
18146;SDS011;9199;48.832;9.182;2023-06-22T07:10:12;8.65;;;5.90;;
18146;SDS011;9199;48.832;9.182;2023-06-22T07:12:40;11.97;;;6.50;;
18146;SDS011;9199;48.832;9.182;2023-06-22T07:15:08;12.82;;;6.20;;
18146;SDS011;9199;48.832;9.182;2023-06-22T07:17:37;13.48;;;6.32;;
18146;SDS011;9199;48.832;9.182;2023-06-22T07:20:06;10.90;;;5.70;;
18146;SDS011;9199;48.832;9.182;2023-06-22T07:22:35;9.70;;;5.80;;
18146;SDS011;9199;48.832;9.182;2023-06-22T07:25:02;10.50;;;5.70;;
18146;SDS011;9199;48.832;9.182;2023-06-22T07:27:34;9.13;;;5.70;;
18146;SDS011;9199;48.832;9.182;2023-06-22T07:30:03;8.95;;;5.25;;
18146;SDS011;9199;48.832;9.182;2023-06-22T07:32:32;10.30;;;5.72;;
18146;SDS011;9199;48.832;9.182;2023-06-22T07:34:58;9.18;;;5.22;;
18146;SDS011;9199;48.832;9.182;2023-06-22T07:37:26;9.50;;;5.53;;
18146;SDS011;9199;48.832;9.182;2023-06-22T07:39:53;9.68;;;5.35;;
18146;SDS011;9199;48.832;9.182;2023-06-22T07:42:23;9.25;;;5.70;;
18146;SDS011;9199;48.832;9.182;2023-06-22T07:44:50;9.20;;;5.53;;
18146;SDS011;9199;48.832;9.182;2023-06-22T07:47:17;9.02;;;5.03;;
18146;SDS011;9199;48.832;9.182;2023-06-22T07:49:45;9.60;;;5.40;;
18146;SDS011;9199;48.832;9.182;2023-06-22T07:52:12;11.48;;;5.10;;
18146;SDS011;9199;48.832;9.182;2023-06-22T07:54:39;8.93;;;4.35;;
18146;SDS011;9199;48.832;9.182;2023-06-22T07:57:05;10.02;;;5.13;;
18146;SDS011;9199;48.832;9.182;2023-06-22T07:59:32;10.73;;;4.88;;
18146;SDS011;9199;48.832;9.182;2023-06-22T08:01:59;8.80;;;4.93;;
18146;SDS011;9199;48.832;9.182;2023-06-22T08:04:25;8.27;;;4.70;;
18146;SDS011;9199;48.832;9.182;2023-06-22T08:06:55;9.13;;;4.80;;
18146;SDS011;9199;48.832;9.182;2023-06-22T08:09:21;8.90;;;4.80;;
18146;SDS011;9199;48.832;9.182;2023-06-22T08:11:48;8.80;;;4.40;;
18146;SDS011;9199;48.832;9.182;2023-06-22T08:14:15;7.67;;;4.07;;
18146;SDS011;9199;48.832;9.182;2023-06-22T08:16:41;9.23;;;4.50;;
18146;SDS011;9199;48.832;9.182;2023-06-22T08:19:08;7.70;;;4.55;;
18146;SDS011;9199;48.832;9.182;2023-06-22T08:21:35;9.32;;;4.22;;
18146;SDS011;9199;48.832;9.182;2023-06-22T08:24:04;11.10;;;4.50;;
18146;SDS011;9199;48.832;9.182;2023-06-22T08:26:32;10.17;;;4.60;;
18146;SDS011;9199;48.832;9.182;2023-06-22T08:29:01;8.30;;;4.80;;
18146;SDS011;9199;48.832;9.182;2023-06-22T08:31:28;8.93;;;4.28;;
18146;SDS011;9199;48.832;9.182;2023-06-22T08:33:55;10.07;;;4.70;;
18146;SDS011;9199;48.832;9.182;2023-06-22T08:36:22;10.75;;;4.85;;
18146;SDS011;9199;48.832;9.182;2023-06-22T08:38:48;7.43;;;4.60;;
18146;SDS011;9199;48.832;9.182;2023-06-22T08:41:17;9.57;;;4.90;;
18146;SDS011;9199;48.832;9.182;2023-06-22T08:43:44;10.23;;;4.57;;
18146;SDS011;9199;48.832;9.182;2023-06-22T08:46:11;10.30;;;4.97;;
18146;SDS011;9199;48.832;9.182;2023-06-22T08:48:37;8.18;;;4.93;;
18146;SDS011;9199;48.832;9.182;2023-06-22T08:51:04;12.60;;;5.60;;
18146;SDS011;9199;48.832;9.182;2023-06-22T08:53:31;8.60;;;4.53;;
18146;SDS011;9199;48.832;9.182;2023-06-22T08:55:57;8.88;;;4.57;;
18146;SDS011;9199;48.832;9.182;2023-06-22T08:58:25;10.07;;;4.78;;
18146;SDS011;9199;48.832;9.182;2023-06-22T09:00:52;8.95;;;4.78;;
18146;SDS011;9199;48.832;9.182;2023-06-22T09:03:19;8.10;;;4.93;;
18146;SDS011;9199;48.832;9.182;2023-06-22T09:05:46;7.93;;;4.97;;
18146;SDS011;9199;48.832;9.182;2023-06-22T09:08:13;9.02;;;4.68;;
18146;SDS011;9199;48.832;9.182;2023-06-22T09:10:39;10.05;;;4.50;;
18146;SDS011;9199;48.832;9.182;2023-06-22T09:13:06;10.55;;;4.55;;
18146;SDS011;9199;48.832;9.182;2023-06-22T09:15:34;8.90;;;4.83;;
18146;SDS011;9199;48.832;9.182;2023-06-22T09:18:01;11.18;;;5.22;;
18146;SDS011;9199;48.832;9.182;2023-06-22T09:20:27;10.18;;;4.70;;
18146;SDS011;9199;48.832;9.182;2023-06-22T09:22:54;9.48;;;4.38;;
18146;SDS011;9199;48.832;9.182;2023-06-22T09:25:21;12.82;;;5.10;;
18146;SDS011;9199;48.832;9.182;2023-06-22T09:27:47;10.43;;;4.70;;
18146;SDS011;9199;48.832;9.182;2023-06-22T09:30:14;11.60;;;4.95;;
18146;SDS011;9199;48.832;9.182;2023-06-22T09:32:42;10.63;;;4.82;;
18146;SDS011;9199;48.832;9.182;2023-06-22T09:35:09;10.57;;;4.53;;
18146;SDS011;9199;48.832;9.182;2023-06-22T09:37:37;11.65;;;4.65;;
18146;SDS011;9199;48.832;9.182;2023-06-22T09:40:05;10.40;;;4.57;;
18146;SDS011;9199;48.832;9.182;2023-06-22T09:42:35;10.52;;;4.72;;
18146;SDS011;9199;48.832;9.182;2023-06-22T09:45:02;8.52;;;4.32;;
18146;SDS011;9199;48.832;9.182;2023-06-22T09:47:29;13.27;;;4.95;;
18146;SDS011;9199;48.832;9.182;2023-06-22T09:49:57;8.93;;;4.63;;
18146;SDS011;9199;48.832;9.182;2023-06-22T09:52:24;11.60;;;4.80;;
18146;SDS011;9199;48.832;9.182;2023-06-22T09:54:51;12.40;;;5.07;;
18146;SDS011;9199;48.832;9.182;2023-06-22T09:57:18;9.73;;;5.18;;
18146;SDS011;9199;48.832;9.182;2023-06-22T09:59:45;10.90;;;4.70;;
18146;SDS011;9199;48.832;9.182;2023-06-22T10:02:11;10.43;;;5.07;;
18146;SDS011;9199;48.832;9.182;2023-06-22T10:04:38;12.57;;;4.97;;
18146;SDS011;9199;48.832;9.182;2023-06-22T10:07:07;10.25;;;4.68;;
18146;SDS011;9199;48.832;9.182;2023-06-22T10:09:33;12.57;;;5.32;;
18146;SDS011;9199;48.832;9.182;2023-06-22T10:12:00;11.35;;;5.05;;
18146;SDS011;9199;48.832;9.182;2023-06-22T10:14:26;8.93;;;4.70;;
18146;SDS011;9199;48.832;9.182;2023-06-22T10:16:54;8.70;;;4.80;;
18146;SDS011;9199;48.832;9.182;2023-06-22T10:19:21;9.48;;;5.13;;
18146;SDS011;9199;48.832;9.182;2023-06-22T10:21:48;12.15;;;5.40;;
18146;SDS011;9199;48.832;9.182;2023-06-22T10:24:16;13.13;;;5.30;;
18146;SDS011;9199;48.832;9.182;2023-06-22T10:26:42;12.00;;;5.25;;
18146;SDS011;9199;48.832;9.182;2023-06-22T10:29:09;13.83;;;5.10;;
18146;SDS011;9199;48.832;9.182;2023-06-22T10:31:36;10.07;;;4.40;;
18146;SDS011;9199;48.832;9.182;2023-06-22T10:34:02;11.75;;;5.05;;
18146;SDS011;9199;48.832;9.182;2023-06-22T10:36:29;9.70;;;4.68;;
18146;SDS011;9199;48.832;9.182;2023-06-22T10:38:56;10.95;;;4.97;;
18146;SDS011;9199;48.832;9.182;2023-06-22T10:41:25;10.60;;;4.80;;
18146;SDS011;9199;48.832;9.182;2023-06-22T10:43:55;10.07;;;4.97;;
18146;SDS011;9199;48.832;9.182;2023-06-22T10:46:21;9.30;;;4.85;;
18146;SDS011;9199;48.832;9.182;2023-06-22T10:48:50;10.38;;;5.03;;
18146;SDS011;9199;48.832;9.182;2023-06-22T10:51:19;9.68;;;5.38;;
18146;SDS011;9199;48.832;9.182;2023-06-22T10:53:46;15.60;;;5.40;;
18146;SDS011;9199;48.832;9.182;2023-06-22T10:56:12;10.70;;;5.18;;
18146;SDS011;9199;48.832;9.182;2023-06-22T10:58:40;10.60;;;5.13;;
18146;SDS011;9199;48.832;9.182;2023-06-22T11:01:07;10.02;;;5.45;;
18146;SDS011;9199;48.832;9.182;2023-06-22T11:03:34;12.23;;;5.20;;
18146;SDS011;9199;48.832;9.182;2023-06-22T11:06:00;12.10;;;5.37;;
18146;SDS011;9199;48.832;9.182;2023-06-22T11:08:27;9.73;;;5.00;;
18146;SDS011;9199;48.832;9.182;2023-06-22T11:10:54;12.18;;;5.20;;
18146;SDS011;9199;48.832;9.182;2023-06-22T11:13:20;10.85;;;4.82;;
18146;SDS011;9199;48.832;9.182;2023-06-22T11:15:48;11.18;;;5.13;;
18146;SDS011;9199;48.832;9.182;2023-06-22T11:18:15;11.57;;;5.40;;
18146;SDS011;9199;48.832;9.182;2023-06-22T11:20:42;9.65;;;5.22;;
18146;SDS011;9199;48.832;9.182;2023-06-22T11:23:09;8.57;;;4.70;;
18146;SDS011;9199;48.832;9.182;2023-06-22T11:25:36;11.65;;;5.25;;
18146;SDS011;9199;48.832;9.182;2023-06-22T11:28:03;10.68;;;4.65;;
18146;SDS011;9199;48.832;9.182;2023-06-22T11:30:30;10.07;;;4.77;;
18146;SDS011;9199;48.832;9.182;2023-06-22T11:32:59;13.68;;;5.55;;
18146;SDS011;9199;48.832;9.182;2023-06-22T11:35:26;13.00;;;4.80;;
18146;SDS011;9199;48.832;9.182;2023-06-22T11:37:53;11.63;;;5.20;;
18146;SDS011;9199;48.832;9.182;2023-06-22T11:40:21;11.10;;;4.60;;
18146;SDS011;9199;48.832;9.182;2023-06-22T11:42:48;12.27;;;4.93;;
18146;SDS011;9199;48.832;9.182;2023-06-22T11:45:14;13.95;;;5.60;;
18146;SDS011;9199;48.832;9.182;2023-06-22T11:47:42;11.60;;;5.13;;
18146;SDS011;9199;48.832;9.182;2023-06-22T11:50:10;11.93;;;4.88;;
18146;SDS011;9199;48.832;9.182;2023-06-22T11:52:37;10.68;;;5.22;;
18146;SDS011;9199;48.832;9.182;2023-06-22T11:55:04;11.17;;;5.03;;
18146;SDS011;9199;48.832;9.182;2023-06-22T11:57:32;13.90;;;5.05;;
18146;SDS011;9199;48.832;9.182;2023-06-22T12:00:00;9.43;;;5.20;;
18146;SDS011;9199;48.832;9.182;2023-06-22T12:02:31;15.80;;;5.20;;
18146;SDS011;9199;48.832;9.182;2023-06-22T12:04:57;12.73;;;4.93;;
18146;SDS011;9199;48.832;9.182;2023-06-22T12:07:25;13.43;;;5.10;;
18146;SDS011;9199;48.832;9.182;2023-06-22T12:09:52;13.40;;;5.50;;
18146;SDS011;9199;48.832;9.182;2023-06-22T12:12:19;13.15;;;5.35;;
18146;SDS011;9199;48.832;9.182;2023-06-22T12:14:45;13.80;;;5.32;;
18146;SDS011;9199;48.832;9.182;2023-06-22T12:17:12;12.55;;;5.05;;
18146;SDS011;9199;48.832;9.182;2023-06-22T12:19:39;14.10;;;5.13;;
18146;SDS011;9199;48.832;9.182;2023-06-22T12:22:05;15.18;;;5.75;;
18146;SDS011;9199;48.832;9.182;2023-06-22T12:24:33;14.38;;;5.55;;
18146;SDS011;9199;48.832;9.182;2023-06-22T12:27:00;11.68;;;5.25;;
18146;SDS011;9199;48.832;9.182;2023-06-22T12:29:28;16.95;;;5.70;;
18146;SDS011;9199;48.832;9.182;2023-06-22T12:31:55;12.23;;;5.13;;
18146;SDS011;9199;48.832;9.182;2023-06-22T12:34:21;12.60;;;5.70;;
18146;SDS011;9199;48.832;9.182;2023-06-22T12:36:48;12.38;;;5.30;;
18146;SDS011;9199;48.832;9.182;2023-06-22T12:39:15;13.20;;;5.03;;
18146;SDS011;9199;48.832;9.182;2023-06-22T12:41:43;15.45;;;5.55;;
18146;SDS011;9199;48.832;9.182;2023-06-22T12:44:10;12.13;;;5.50;;
18146;SDS011;9199;48.832;9.182;2023-06-22T12:46:36;9.77;;;4.78;;
18146;SDS011;9199;48.832;9.182;2023-06-22T12:49:03;20.50;;;5.47;;
18146;SDS011;9199;48.832;9.182;2023-06-22T12:51:30;11.50;;;5.45;;
18146;SDS011;9199;48.832;9.182;2023-06-22T12:53:57;14.18;;;5.78;;
18146;SDS011;9199;48.832;9.182;2023-06-22T12:56:24;15.23;;;5.60;;
18146;SDS011;9199;48.832;9.182;2023-06-22T12:58:52;13.00;;;5.10;;
18146;SDS011;9199;48.832;9.182;2023-06-22T13:01:19;15.65;;;5.05;;
18146;SDS011;9199;48.832;9.182;2023-06-22T13:03:47;15.32;;;5.32;;
18146;SDS011;9199;48.832;9.182;2023-06-22T13:06:13;12.90;;;5.38;;
18146;SDS011;9199;48.832;9.182;2023-06-22T13:08:40;14.70;;;5.33;;
18146;SDS011;9199;48.832;9.182;2023-06-22T13:11:07;12.70;;;5.20;;
18146;SDS011;9199;48.832;9.182;2023-06-22T13:13:33;12.18;;;5.03;;
18146;SDS011;9199;48.832;9.182;2023-06-22T13:16:01;12.70;;;5.32;;
18146;SDS011;9199;48.832;9.182;2023-06-22T13:18:28;15.18;;;5.40;;
18146;SDS011;9199;48.832;9.182;2023-06-22T13:20:55;12.63;;;5.47;;
18146;SDS011;9199;48.832;9.182;2023-06-22T13:23:23;13.25;;;5.45;;
18146;SDS011;9199;48.832;9.182;2023-06-22T13:25:49;10.73;;;5.22;;
18146;SDS011;9199;48.832;9.182;2023-06-22T13:28:16;16.35;;;5.70;;
18146;SDS011;9199;48.832;9.182;2023-06-22T13:30:43;15.68;;;5.70;;
18146;SDS011;9199;48.832;9.182;2023-06-22T13:33:13;12.03;;;5.23;;
18146;SDS011;9199;48.832;9.182;2023-06-22T13:35:40;11.43;;;5.00;;
18146;SDS011;9199;48.832;9.182;2023-06-22T13:38:07;11.88;;;5.00;;
18146;SDS011;9199;48.832;9.182;2023-06-22T13:40:34;12.48;;;5.38;;
18146;SDS011;9199;48.832;9.182;2023-06-22T13:43:02;11.80;;;5.18;;
18146;SDS011;9199;48.832;9.182;2023-06-22T13:45:29;11.70;;;5.47;;
18146;SDS011;9199;48.832;9.182;2023-06-22T13:47:56;15.05;;;5.65;;
18146;SDS011;9199;48.832;9.182;2023-06-22T13:50:24;12.65;;;5.45;;
18146;SDS011;9199;48.832;9.182;2023-06-22T13:52:51;14.18;;;5.25;;
18146;SDS011;9199;48.832;9.182;2023-06-22T13:55:18;12.70;;;5.57;;
18146;SDS011;9199;48.832;9.182;2023-06-22T13:57:46;13.57;;;5.47;;
18146;SDS011;9199;48.832;9.182;2023-06-22T14:00:13;10.88;;;5.07;;
18146;SDS011;9199;48.832;9.182;2023-06-22T14:02:40;13.10;;;5.57;;
18146;SDS011;9199;48.832;9.182;2023-06-22T14:05:07;12.18;;;5.10;;
18146;SDS011;9199;48.832;9.182;2023-06-22T14:07:37;11.50;;;4.65;;
18146;SDS011;9199;48.832;9.182;2023-06-22T14:10:04;16.67;;;5.20;;
18146;SDS011;9199;48.832;9.182;2023-06-22T14:12:31;9.38;;;4.93;;
18146;SDS011;9199;48.832;9.182;2023-06-22T14:14:58;13.90;;;5.03;;
18146;SDS011;9199;48.832;9.182;2023-06-22T14:17:25;12.07;;;5.15;;
18146;SDS011;9199;48.832;9.182;2023-06-22T14:19:52;13.23;;;5.35;;
18146;SDS011;9199;48.832;9.182;2023-06-22T14:22:19;11.97;;;5.10;;
18146;SDS011;9199;48.832;9.182;2023-06-22T14:24:47;12.40;;;4.70;;
18146;SDS011;9199;48.832;9.182;2023-06-22T14:27:14;12.60;;;4.93;;
18146;SDS011;9199;48.832;9.182;2023-06-22T14:29:45;15.20;;;5.40;;
18146;SDS011;9199;48.832;9.182;2023-06-22T14:32:12;12.48;;;5.05;;
18146;SDS011;9199;48.832;9.182;2023-06-22T14:34:38;13.33;;;5.03;;
18146;SDS011;9199;48.832;9.182;2023-06-22T14:37:05;12.38;;;4.97;;
18146;SDS011;9199;48.832;9.182;2023-06-22T14:39:37;10.98;;;5.00;;
18146;SDS011;9199;48.832;9.182;2023-06-22T14:42:05;11.75;;;5.10;;
18146;SDS011;9199;48.832;9.182;2023-06-22T14:44:32;12.48;;;5.28;;
18146;SDS011;9199;48.832;9.182;2023-06-22T14:47:00;12.23;;;4.87;;
18146;SDS011;9199;48.832;9.182;2023-06-22T14:49:27;11.88;;;5.40;;
18146;SDS011;9199;48.832;9.182;2023-06-22T14:51:57;14.27;;;4.68;;